Time;durP1;ratioP1;P1;durP2;ratioP2;P2;SDS_P1;SDS_P2;PMS_P1;PMS_P2;Temp;Humidity;BMP_temperature;BMP_pressure;BME280_temperature;BME280_humidity;BME280_pressure;Samples;Min_cycle;Max_cycle;Signal;HPM_P1;HPM_P2
2024/01/12 00:00:30;;;;;;;;;;;-1.90;99.90;;;;;;5065667;28;19916;-81
2024/01/12 00:02:55;;;;;;;;;;;-1.90;99.90;;;;;;5052242;28;20514;-81
2024/01/12 00:05:21;;;;;;;;;;;-1.80;99.90;;;;;;5069933;28;19913;-81
2024/01/12 00:07:46;;;;;;;;;;;-1.80;99.90;;;;;;5053295;28;19908;-80
2024/01/12 00:10:12;;;;;;;;;;;-1.80;99.90;;;;;;5034924;28;1058364;-81
2024/01/12 00:12:38;;;;;;;;;;;-1.80;99.90;;;;;;5072459;28;19912;-81
2024/01/12 00:15:05;;;;;;;;;;;-1.80;99.90;;;;;;5061472;28;19993;-81
2024/01/12 00:17:30;;;;;;;;;;;-1.80;99.90;;;;;;5069855;28;19927;-80
2024/01/12 00:19:56;;;;;;;;;;;-1.90;99.90;;;;;;5054216;28;20011;-81
2024/01/12 00:22:21;;;;;;;;;;;-1.80;99.90;;;;;;5070922;28;19908;-81
2024/01/12 00:24:47;;;;;;;;;;;-1.80;99.90;;;;;;5068505;28;19916;-81
2024/01/12 00:27:12;;;;;;;;;;;-1.70;99.90;;;;;;5071899;28;20340;-81
2024/01/12 00:29:38;;;;;;;;;;;-1.80;99.90;;;;;;5053275;28;19913;-81
2024/01/12 00:32:05;;;;;;;;;;;-1.90;99.90;;;;;;5049100;28;19913;-80
2024/01/12 00:34:31;;;;;;;;;;;-1.90;99.90;;;;;;5034030;28;19995;-81
2024/01/12 00:36:56;;;;;;;;;;;-1.90;99.90;;;;;;5043021;28;20019;-81
2024/01/12 00:39:22;;;;;;;;;;;-2.00;99.90;;;;;;5072385;28;19904;-81
2024/01/12 00:41:50;;;;;;;;;;;-1.90;99.90;;;;;;5052956;28;20304;-81
2024/01/12 00:44:18;;;;;;;;;;;-1.90;99.90;;;;;;5070012;28;19946;-81
2024/01/12 00:46:44;;;;;;;;;;;-1.90;99.90;;;;;;5069481;28;19987;-80
2024/01/12 00:49:10;;;;;;;;;;;-1.90;99.90;;;;;;5056501;28;19916;-81
2024/01/12 00:51:35;;;;;;;;;;;-1.90;99.90;;;;;;5052245;28;19945;-81
2024/01/12 00:54:01;;;;;;;;;;;-1.90;99.90;;;;;;5071112;28;19909;-80
2024/01/12 00:56:26;;;;;;;;;;;-1.90;99.90;;;;;;5070993;28;19908;-81
2024/01/12 00:58:51;;;;;;;;;;;-1.90;99.90;;;;;;5061174;28;19912;-81
2024/01/12 01:01:17;;;;;;;;;;;-1.90;99.90;;;;;;5051576;28;19908;-81
2024/01/12 01:03:43;;;;;;;;;;;-1.90;99.90;;;;;;5069364;28;19999;-81
2024/01/12 01:06:08;;;;;;;;;;;-1.90;99.90;;;;;;5053491;28;19994;-81
2024/01/12 01:08:33;;;;;;;;;;;-1.90;99.90;;;;;;5070956;28;20029;-80
2024/01/12 01:10:59;;;;;;;;;;;-1.90;99.90;;;;;;5052769;28;19959;-81
2024/01/12 01:13:24;;;;;;;;;;;-2.00;99.90;;;;;;5070970;28;20006;-80
2024/01/12 01:15:50;;;;;;;;;;;-2.10;99.90;;;;;;5069221;28;20367;-81
2024/01/12 01:18:18;;;;;;;;;;;-2.10;99.90;;;;;;5068084;28;19924;-81
2024/01/12 01:20:44;;;;;;;;;;;-2.20;99.90;;;;;;5052077;28;19917;-81
2024/01/12 01:23:09;;;;;;;;;;;-2.10;99.90;;;;;;5070426;28;19970;-80
2024/01/12 01:26:00;;;;;;;;;;;-2.00;99.90;;;;;;5070367;28;19962;-81
2024/01/12 01:28:26;;;;;;;;;;;-1.90;99.90;;;;;;5071434;28;20015;-81
2024/01/12 01:30:51;;;;;;;;;;;-1.80;99.90;;;;;;5070037;28;20360;-81
2024/01/12 01:33:17;;;;;;;;;;;-1.80;99.90;;;;;;5061665;28;19909;-81
2024/01/12 01:35:42;;;;;;;;;;;-1.80;99.90;;;;;;5049619;28;20432;-81
2024/01/12 01:38:08;;;;;;;;;;;-1.80;99.90;;;;;;5070673;28;19916;-81
2024/01/12 01:40:33;;;;;;;;;;;-1.80;99.90;;;;;;5071003;28;20031;-81
2024/01/12 01:43:08;;;;;;;;;;;-2.00;99.90;;;;;;5052249;28;20752;-81
2024/01/12 01:45:36;;;;;;;;;;;-2.00;99.90;;;;;;5069778;28;19912;-81
2024/01/12 01:48:26;;;;;;;;;;;-2.10;99.90;;;;;;5070830;28;19908;-81
2024/01/12 01:50:52;;;;;;;;;;;-2.20;99.90;;;;;;5053314;28;19908;-81
2024/01/12 01:53:18;;;;;;;;;;;-2.20;99.90;;;;;;5067907;28;19939;-81
2024/01/12 01:55:47;;;;;;;;;;;-2.20;99.90;;;;;;5051998;28;20005;-81
2024/01/12 01:58:13;;;;;;;;;;;-2.10;99.90;;;;;;5067305;28;20372;-81
2024/01/12 02:00:38;;;;;;;;;;;-2.10;99.90;;;;;;5067236;28;19927;-81
2024/01/12 02:03:04;;;;;;;;;;;-2.10;99.90;;;;;;5070390;28;19908;-80
2024/01/12 02:05:30;;;;;;;;;;;-2.00;99.90;;;;;;5052096;28;19916;-81
2024/01/12 02:07:56;;;;;;;;;;;-2.00;99.90;;;;;;5069972;28;19912;-80
2024/01/12 02:10:22;;;;;;;;;;;-1.90;99.90;;;;;;5044504;28;20427;-81
2024/01/12 02:12:48;;;;;;;;;;;-2.10;99.90;;;;;;5070099;28;19908;-81
2024/01/12 02:15:14;;;;;;;;;;;-2.20;99.90;;;;;;5062438;28;19912;-81
2024/01/12 02:17:40;;;;;;;;;;;-2.30;99.90;;;;;;5069894;28;19920;-81
2024/01/12 02:20:06;;;;;;;;;;;-2.30;99.90;;;;;;5068303;28;19927;-81
2024/01/12 02:22:31;;;;;;;;;;;-2.30;99.90;;;;;;5034087;28;20285;-81
2024/01/12 02:24:57;;;;;;;;;;;-2.40;99.90;;;;;;5051601;28;19962;-81
2024/01/12 02:27:22;;;;;;;;;;;-2.50;99.90;;;;;;5067135;28;19915;-80
2024/01/12 02:29:49;;;;;;;;;;;-2.40;99.90;;;;;;5069567;28;19912;-81
2024/01/12 02:32:14;;;;;;;;;;;-2.50;99.90;;;;;;5059910;28;19973;-81
2024/01/12 02:34:40;;;;;;;;;;;-2.50;99.90;;;;;;5069860;28;20365;-81
2024/01/12 02:37:05;;;;;;;;;;;-2.30;99.90;;;;;;5051320;28;20466;-81
2024/01/12 02:39:33;;;;;;;;;;;-2.30;99.90;;;;;;5069445;28;19908;-81
2024/01/12 02:41:59;;;;;;;;;;;-2.20;99.90;;;;;;5069696;28;20031;-81
2024/01/12 02:44:24;;;;;;;;;;;-2.30;99.90;;;;;;5041556;28;20483;-81
2024/01/12 02:46:50;;;;;;;;;;;-2.50;99.90;;;;;;5068806;28;19915;-80
2024/01/12 02:49:15;;;;;;;;;;;-2.60;99.90;;;;;;5036626;28;19915;-81
2024/01/12 02:51:41;;;;;;;;;;;-2.70;99.90;;;;;;5053903;28;20389;-81
2024/01/12 02:54:06;;;;;;;;;;;-2.60;99.90;;;;;;5069507;28;20284;-81
2024/01/12 02:56:32;;;;;;;;;;;-2.60;99.90;;;;;;5069810;28;19908;-81
2024/01/12 02:58:57;;;;;;;;;;;-2.60;99.90;;;;;;5069104;28;19928;-80
2024/01/12 03:01:23;;;;;;;;;;;-2.60;99.90;;;;;;5049706;28;19912;-81
2024/01/12 03:03:48;;;;;;;;;;;-2.60;99.90;;;;;;5072390;28;19908;-80
2024/01/12 03:06:14;;;;;;;;;;;-2.60;99.90;;;;;;5054430;28;19908;-80
2024/01/12 03:08:39;;;;;;;;;;;-2.60;99.90;;;;;;5054895;28;20330;-80
2024/01/12 03:11:05;;;;;;;;;;;-2.70;99.90;;;;;;5073271;28;19919;-81
2024/01/12 03:13:32;;;;;;;;;;;-2.70;99.90;;;;;;5072749;28;19950;-81
2024/01/12 03:15:58;;;;;;;;;;;-2.60;99.90;;;;;;5072272;28;19917;-81
2024/01/12 03:18:24;;;;;;;;;;;-2.30;99.90;;;;;;5061755;28;19912;-80
2024/01/12 03:20:49;;;;;;;;;;;-2.10;99.90;;;;;;5072283;28;20011;-81
2024/01/12 03:23:15;;;;;;;;;;;-2.20;99.90;;;;;;5054793;28;19908;-81
2024/01/12 03:25:40;;;;;;;;;;;-2.30;99.90;;;;;;5071481;28;19908;-81
2024/01/12 03:28:08;;;;;;;;;;;-2.40;99.90;;;;;;5070259;28;20003;-80
2024/01/12 03:30:34;;;;;;;;;;;-2.60;99.90;;;;;;5054352;28;19913;-81
2024/01/12 03:32:59;;;;;;;;;;;-2.70;99.90;;;;;;5052359;28;19933;-81
2024/01/12 03:35:25;;;;;;;;;;;-2.50;99.90;;;;;;5070211;28;19909;-81
2024/01/12 03:37:50;;;;;;;;;;;-2.20;99.90;;;;;;5072790;28;19959;-81
2024/01/12 03:40:16;;;;;;;;;;;-2.40;99.90;;;;;;5067411;28;20277;-80
2024/01/12 03:42:41;;;;;;;;;;;-2.60;99.90;;;;;;5071876;28;20379;-80
2024/01/12 03:45:07;;;;;;;;;;;-2.70;99.90;;;;;;5071837;28;20407;-81
2024/01/12 03:47:32;;;;;;;;;;;-2.70;99.90;;;;;;5072496;28;19985;-80
2024/01/12 03:49:58;;;;;;;;;;;-2.80;99.90;;;;;;5069493;28;19913;-80
2024/01/12 03:52:24;;;;;;;;;;;-2.80;99.90;;;;;;5048057;28;19916;-80
2024/01/12 03:54:49;;;;;;;;;;;-2.80;99.90;;;;;;5071593;28;19995;-80
2024/01/12 03:57:15;;;;;;;;;;;-2.80;99.90;;;;;;5053404;28;19912;-80
2024/01/12 03:59:41;;;;;;;;;;;-2.90;99.90;;;;;;5071931;28;19909;-80
2024/01/12 04:02:06;;;;;;;;;;;-2.80;99.90;;;;;;5071439;28;19908;-80
2024/01/12 04:04:32;;;;;;;;;;;-2.80;99.90;;;;;;5064404;28;19912;-80
2024/01/12 04:06:57;;;;;;;;;;;-2.90;99.90;;;;;;5052034;28;19912;-80
2024/01/12 04:09:22;;;;;;;;;;;-2.90;99.90;;;;;;5038170;28;19995;-81
2024/01/12 04:11:48;;;;;;;;;;;-2.80;99.90;;;;;;5052259;28;19912;-80
2024/01/12 04:14:13;;;;;;;;;;;-2.90;99.90;;;;;;5071045;28;19943;-80
2024/01/12 04:16:39;;;;;;;;;;;-2.90;99.90;;;;;;5070549;28;19977;-80
2024/01/12 04:19:04;;;;;;;;;;;-3.00;99.90;;;;;;5069558;28;19969;-80
2024/01/12 04:21:30;;;;;;;;;;;-3.00;99.90;;;;;;5052744;28;19938;-80
2024/01/12 04:23:55;;;;;;;;;;;-2.90;99.90;;;;;;5070667;28;19904;-80
2024/01/12 04:26:20;;;;;;;;;;;-3.00;99.90;;;;;;5068050;28;19954;-80
2024/01/12 04:28:46;;;;;;;;;;;-2.90;99.90;;;;;;5052437;28;19916;-80
2024/01/12 04:31:11;;;;;;;;;;;-2.90;99.90;;;;;;5071063;28;19904;-81
2024/01/12 04:33:37;;;;;;;;;;;-2.90;99.90;;;;;;5071148;28;19908;-80
2024/01/12 04:36:05;;;;;;;;;;;-2.80;99.90;;;;;;5069575;28;19968;-80
2024/01/12 04:38:30;;;;;;;;;;;-2.90;99.90;;;;;;5043543;28;20386;-80
2024/01/12 04:40:55;;;;;;;;;;;-2.90;99.90;;;;;;5045747;28;19948;-81
2024/01/12 04:43:21;;;;;;;;;;;-2.80;99.90;;;;;;5066072;28;19917;-80
2024/01/12 04:45:46;;;;;;;;;;;-2.80;99.90;;;;;;5070240;28;19912;-80
2024/01/12 04:48:12;;;;;;;;;;;-2.80;99.90;;;;;;5071293;28;19936;-80
2024/01/12 04:50:38;;;;;;;;;;;-2.50;99.90;;;;;;5069726;28;19912;-81
2024/01/12 04:53:03;;;;;;;;;;;-2.60;99.90;;;;;;5070384;28;19931;-80
2024/01/12 04:55:29;;;;;;;;;;;-2.60;99.90;;;;;;5070822;28;20038;-81
2024/01/12 04:57:54;;;;;;;;;;;-2.50;99.90;;;;;;5052606;28;19974;-81
2024/01/12 05:00:20;;;;;;;;;;;-2.80;99.90;;;;;;5067376;28;19935;-81
2024/01/12 05:02:45;;;;;;;;;;;-2.80;99.90;;;;;;5071227;28;20357;-80
2024/01/12 05:05:11;;;;;;;;;;;-2.90;99.90;;;;;;5070003;28;19908;-81
2024/01/12 05:07:36;;;;;;;;;;;-3.00;99.90;;;;;;5070404;28;19999;-80
2024/01/12 05:10:03;;;;;;;;;;;-2.90;99.90;;;;;;5070339;28;20364;-81
2024/01/12 05:12:28;;;;;;;;;;;-2.70;99.90;;;;;;5051431;28;19912;-82
2024/01/12 05:14:54;;;;;;;;;;;-2.50;99.90;;;;;;5070355;28;19950;-80
2024/01/12 05:17:19;;;;;;;;;;;-2.40;99.90;;;;;;5069316;28;19920;-80
2024/01/12 05:19:45;;;;;;;;;;;-2.50;99.90;;;;;;5070460;28;20280;-81
2024/01/12 05:22:11;;;;;;;;;;;-2.60;99.90;;;;;;5049374;28;19908;-81
2024/01/12 05:24:37;;;;;;;;;;;-2.30;99.90;;;;;;5069192;28;19971;-80
2024/01/12 05:27:03;;;;;;;;;;;-2.40;99.90;;;;;;5070020;28;20293;-80
2024/01/12 05:29:28;;;;;;;;;;;-2.60;99.90;;;;;;5070051;28;19919;-80
2024/01/12 05:31:53;;;;;;;;;;;-2.60;99.90;;;;;;5069549;28;20384;-80
2024/01/12 05:34:19;;;;;;;;;;;-2.80;99.90;;;;;;5068844;28;19912;-81
2024/01/12 05:36:44;;;;;;;;;;;-2.80;99.90;;;;;;5066986;28;19930;-81
2024/01/12 05:39:10;;;;;;;;;;;-2.80;99.90;;;;;;5070034;28;19927;-80
2024/01/12 05:41:36;;;;;;;;;;;-2.90;99.90;;;;;;5070363;28;19951;-80
2024/01/12 05:44:01;;;;;;;;;;;-2.70;99.90;;;;;;5069208;28;19908;-81
2024/01/12 05:46:27;;;;;;;;;;;-2.40;99.90;;;;;;5068665;28;19987;-80
2024/01/12 05:48:55;;;;;;;;;;;-2.20;99.90;;;;;;5038781;28;19946;-81
2024/01/12 05:51:21;;;;;;;;;;;-2.10;99.90;;;;;;5069577;28;20332;-80
2024/01/12 05:53:46;;;;;;;;;;;-2.10;99.90;;;;;;5070629;28;19955;-80
2024/01/12 05:56:12;;;;;;;;;;;-1.90;99.90;;;;;;5068187;28;19924;-81
2024/01/12 05:58:37;;;;;;;;;;;-1.90;99.90;;;;;;5068986;28;19924;-80
2024/01/12 06:01:03;;;;;;;;;;;-1.90;99.90;;;;;;5068910;28;20250;-80
2024/01/12 06:03:28;;;;;;;;;;;-2.00;99.90;;;;;;5067574;28;19912;-81
2024/01/12 06:05:55;;;;;;;;;;;-1.80;99.90;;;;;;5068813;28;19919;-80
2024/01/12 06:08:20;;;;;;;;;;;-1.80;99.90;;;;;;5048980;28;19915;-81
2024/01/12 06:10:46;;;;;;;;;;;-1.60;99.90;;;;;;5047827;28;20014;-81
2024/01/12 06:13:12;;;;;;;;;;;-1.60;99.90;;;;;;5068486;28;20434;-81
2024/01/12 06:15:40;;;;;;;;;;;-1.60;99.90;;;;;;5060465;28;19908;-81
2024/01/12 06:18:06;;;;;;;;;;;-1.50;99.90;;;;;;5068661;28;19924;-81
2024/01/12 06:20:31;;;;;;;;;;;-1.50;99.90;;;;;;5051443;28;19908;-81
2024/01/12 06:22:57;;;;;;;;;;;-1.40;99.90;;;;;;5069400;28;19908;-81
2024/01/12 06:25:23;;;;;;;;;;;-1.40;99.90;;;;;;5069090;28;19919;-81
2024/01/12 06:27:49;;;;;;;;;;;-1.40;99.90;;;;;;5067795;28;19912;-81
2024/01/12 06:30:15;;;;;;;;;;;-1.40;99.90;;;;;;5058806;28;20054;-81
2024/01/12 06:32:40;;;;;;;;;;;-1.30;99.90;;;;;;5069124;28;19991;-80
2024/01/12 06:35:09;;;;;;;;;;;-1.30;99.90;;;;;;5066698;28;20141;-81
2024/01/12 06:37:34;;;;;;;;;;;-1.40;99.90;;;;;;5069962;28;19920;-81
2024/01/12 06:40:00;;;;;;;;;;;-1.30;99.90;;;;;;5073066;28;19908;-81
2024/01/12 06:42:26;;;;;;;;;;;-1.20;99.90;;;;;;5069960;28;19965;-81
2024/01/12 06:44:52;;;;;;;;;;;-1.30;99.90;;;;;;5052797;28;19908;-82
2024/01/12 06:47:17;;;;;;;;;;;-1.20;99.90;;;;;;5062427;28;19915;-81
2024/01/12 06:49:45;;;;;;;;;;;-1.20;99.90;;;;;;5072432;28;19916;-81
2024/01/12 06:52:11;;;;;;;;;;;-1.20;99.90;;;;;;5054974;28;19991;-81
2024/01/12 06:54:37;;;;;;;;;;;-1.20;99.90;;;;;;5073104;28;20043;-81
2024/01/12 06:57:02;;;;;;;;;;;-1.20;99.90;;;;;;5072362;28;19919;-81
2024/01/12 06:59:28;;;;;;;;;;;-1.20;99.90;;;;;;5073297;28;20372;-82
2024/01/12 07:01:53;;;;;;;;;;;-1.20;99.90;;;;;;5054814;28;19912;-81
2024/01/12 07:04:19;;;;;;;;;;;-1.10;99.90;;;;;;5072747;28;20319;-81
2024/01/12 07:06:45;;;;;;;;;;;-1.10;99.90;;;;;;5073104;28;19913;-81
2024/01/12 07:09:12;;;;;;;;;;;-1.10;99.90;;;;;;5071978;28;19970;-81
2024/01/12 07:11:41;;;;;;;;;;;-1.10;99.90;;;;;;5054202;28;20372;-82
2024/01/12 07:14:07;;;;;;;;;;;-1.00;99.90;;;;;;5071283;28;19948;-81
2024/01/12 07:16:32;;;;;;;;;;;-1.00;99.90;;;;;;5071612;28;20442;-81
2024/01/12 07:18:58;;;;;;;;;;;-1.00;99.90;;;;;;5072444;28;19952;-81
2024/01/12 07:21:52;;;;;;;;;;;-1.00;99.90;;;;;;5053923;28;19932;-81
2024/01/12 07:24:17;;;;;;;;;;;-1.00;99.90;;;;;;5072121;28;19958;-81
2024/01/12 07:26:42;;;;;;;;;;;-0.90;99.90;;;;;;5074788;28;19920;-81
2024/01/12 07:29:21;;;;;;;;;;;;;;;;;;;;;
2024/01/12 07:31:49;;;;;;;;;;;-0.90;99.90;;;;;;5072255;28;20364;-81
2024/01/12 07:34:50;;;;;;;;;;;-0.90;99.90;;;;;;5074504;28;20009;-80
2024/01/12 07:37:16;;;;;;;;;;;-0.80;99.90;;;;;;5071392;28;19962;-80
2024/01/12 07:39:42;;;;;;;;;;;-0.80;99.90;;;;;;5071382;28;20511;-79
2024/01/12 07:42:08;;;;;;;;;;;-0.70;99.90;;;;;;5072047;28;19969;-79
2024/01/12 07:44:33;;;;;;;;;;;-0.60;99.90;;;;;;5072114;28;19966;-80
2024/01/12 07:46:58;;;;;;;;;;;-0.50;99.90;;;;;;5070932;28;19924;-81
2024/01/12 07:49:24;;;;;;;;;;;-0.50;99.90;;;;;;5066768;28;20356;-81
2024/01/12 07:51:50;;;;;;;;;;;-0.50;99.90;;;;;;5071120;28;19935;-80
2024/01/12 07:54:15;;;;;;;;;;;-0.50;99.90;;;;;;5049347;28;19931;-81
2024/01/12 07:56:40;;;;;;;;;;;-0.40;99.90;;;;;;5053622;28;19997;-80
2024/01/12 07:59:06;;;;;;;;;;;-0.40;99.90;;;;;;5051019;28;20391;-81
2024/01/12 08:01:31;;;;;;;;;;;-0.30;99.90;;;;;;5069518;28;20017;-80
2024/01/12 08:03:57;;;;;;;;;;;-0.30;99.90;;;;;;5062225;28;19963;-80
2024/01/12 08:06:22;;;;;;;;;;;-0.20;99.90;;;;;;5053366;28;19966;-81
2024/01/12 08:08:48;;;;;;;;;;;-0.20;99.90;;;;;;5049749;28;19916;-82
2024/01/12 08:11:13;;;;;;;;;;;-0.20;99.90;;;;;;5070928;28;19912;-80
2024/01/12 08:13:38;;;;;;;;;;;-0.10;99.90;;;;;;5070343;28;19908;-81
2024/01/12 08:16:04;;;;;;;;;;;-0.10;99.90;;;;;;5049359;28;19908;-80
2024/01/12 08:18:29;;;;;;;;;;;0.00;99.90;;;;;;5053607;28;19927;-81
2024/01/12 08:20:55;;;;;;;;;;;0.00;99.90;;;;;;5051895;28;19916;-81
2024/01/12 08:23:20;;;;;;;;;;;0.10;99.90;;;;;;5068888;28;19910;-80
2024/01/12 08:25:46;;;;;;;;;;;0.10;99.90;;;;;;5067260;28;20007;-80
2024/01/12 08:28:12;;;;;;;;;;;0.10;99.90;;;;;;5066658;28;20003;-80
2024/01/12 08:30:37;;;;;;;;;;;0.10;99.90;;;;;;5048099;28;19916;-80
2024/01/12 08:33:03;;;;;;;;;;;0.10;99.90;;;;;;5067678;28;20331;-81
2024/01/12 08:35:29;;;;;;;;;;;0.10;99.90;;;;;;5067399;28;19944;-81
2024/01/12 08:37:54;;;;;;;;;;;0.10;99.90;;;;;;5068387;28;19924;-81
2024/01/12 08:40:19;;;;;;;;;;;0.10;99.90;;;;;;5068576;28;20029;-80
2024/01/12 08:42:45;;;;;;;;;;;0.20;99.90;;;;;;5070108;28;19909;-80
2024/01/12 08:45:11;;;;;;;;;;;0.20;99.90;;;;;;5070249;28;19908;-80
2024/01/12 08:47:36;;;;;;;;;;;0.20;99.90;;;;;;5070911;28;20418;-81
2024/01/12 08:50:02;;;;;;;;;;;0.30;99.90;;;;;;5069617;28;19916;-80
2024/01/12 08:52:27;;;;;;;;;;;0.30;99.90;;;;;;5069978;28;19908;-81
2024/01/12 08:54:53;;;;;;;;;;;0.30;99.90;;;;;;5070274;28;19998;-80
2024/01/12 08:57:18;;;;;;;;;;;0.30;99.90;;;;;;5069979;28;19960;-80
2024/01/12 08:59:44;;;;;;;;;;;0.30;99.90;;;;;;5052508;28;20436;-81
2024/01/12 09:02:09;;;;;;;;;;;0.30;99.90;;;;;;5068437;28;19969;-81
2024/01/12 09:04:35;;;;;;;;;;;0.40;99.90;;;;;;5070344;28;19935;-80
2024/01/12 09:07:00;;;;;;;;;;;0.40;99.90;;;;;;5069386;28;19909;-79
2024/01/12 09:09:26;;;;;;;;;;;0.40;99.90;;;;;;5069413;28;19916;-80
2024/01/12 09:11:51;;;;;;;;;;;0.40;99.90;;;;;;5051563;28;19916;-80
2024/01/12 09:14:17;;;;;;;;;;;0.40;99.90;;;;;;5070593;28;19912;-80
2024/01/12 09:16:42;;;;;;;;;;;0.40;99.90;;;;;;5070080;28;20650;-80
2024/01/12 09:19:08;;;;;;;;;;;0.40;99.90;;;;;;5070511;28;19923;-80
2024/01/12 09:21:33;;;;;;;;;;;0.50;99.90;;;;;;5068487;28;19923;-80
2024/01/12 09:23:59;;;;;;;;;;;0.50;99.90;;;;;;5063865;28;19940;-80
2024/01/12 09:26:24;;;;;;;;;;;0.50;99.90;;;;;;5069647;28;20273;-80
2024/01/12 09:28:50;;;;;;;;;;;0.50;99.90;;;;;;5069887;28;19952;-79
2024/01/12 09:31:15;;;;;;;;;;;0.50;99.90;;;;;;5069793;28;19912;-80
2024/01/12 09:33:41;;;;;;;;;;;0.40;99.90;;;;;;5069872;28;20368;-80
2024/01/12 09:36:07;;;;;;;;;;;0.40;99.90;;;;;;5066360;28;19916;-81
2024/01/12 09:38:32;;;;;;;;;;;0.40;99.90;;;;;;5070434;28;19916;-80
2024/01/12 09:40:58;;;;;;;;;;;0.40;99.90;;;;;;5070209;28;19919;-79
2024/01/12 09:43:27;;;;;;;;;;;0.40;99.90;;;;;;5069868;28;19909;-81
2024/01/12 09:45:53;;;;;;;;;;;0.40;99.90;;;;;;5069454;28;20293;-80
2024/01/12 09:48:18;;;;;;;;;;;0.40;99.90;;;;;;5070260;28;19917;-80
2024/01/12 09:50:45;;;;;;;;;;;0.40;99.90;;;;;;5069423;28;20003;-80
2024/01/12 09:53:11;;;;;;;;;;;0.40;99.90;;;;;;5069107;28;19908;-80
2024/01/12 09:55:36;;;;;;;;;;;0.40;99.90;;;;;;5069491;28;19974;-81
2024/01/12 09:58:04;;;;;;;;;;;0.40;99.90;;;;;;5066219;28;19916;-80
2024/01/12 10:00:31;;;;;;;;;;;0.50;99.90;;;;;;5069026;28;19908;-81
2024/01/12 10:02:58;;;;;;;;;;;0.50;99.90;;;;;;5070213;28;19965;-80
2024/01/12 10:05:24;;;;;;;;;;;0.50;99.90;;;;;;5064076;28;19919;-81
2024/01/12 10:07:50;;;;;;;;;;;0.50;99.90;;;;;;5051283;28;19913;-82
2024/01/12 10:10:15;;;;;;;;;;;0.60;99.90;;;;;;5071224;28;19935;-82
2024/01/12 10:12:40;;;;;;;;;;;0.60;99.90;;;;;;5054365;28;19916;-82
2024/01/12 10:15:10;;;;;;;;;;;0.60;99.90;;;;;;5053433;28;19912;-82
2024/01/12 10:17:35;;;;;;;;;;;0.70;99.90;;;;;;5067908;28;20443;-83
2024/01/12 10:20:01;;;;;;;;;;;0.70;99.90;;;;;;5072141;28;19916;-82
2024/01/12 10:22:27;;;;;;;;;;;0.70;99.90;;;;;;5072477;28;19929;-83
2024/01/12 10:25:13;;;;;;;;;;;0.60;99.90;;;;;;5064963;28;19919;-83
2024/01/12 10:27:38;;;;;;;;;;;0.70;99.90;;;;;;5070591;28;19912;-83
2024/01/12 10:30:04;;;;;;;;;;;0.70;99.90;;;;;;5071213;28;19920;-82
2024/01/12 10:32:29;;;;;;;;;;;0.70;99.90;;;;;;5072722;28;19919;-82
2024/01/12 10:34:55;;;;;;;;;;;0.70;99.90;;;;;;5054376;28;19915;-81
2024/01/12 10:37:21;;;;;;;;;;;0.60;99.90;;;;;;5071146;28;20257;-83
2024/01/12 10:39:47;;;;;;;;;;;0.60;99.90;;;;;;5067203;28;19923;-83
2024/01/12 10:42:13;;;;;;;;;;;0.60;99.90;;;;;;5070879;28;20400;-83
2024/01/12 10:44:40;;;;;;;;;;;0.70;99.90;;;;;;5072298;28;20001;-82
2024/01/12 10:47:06;;;;;;;;;;;0.70;99.90;;;;;;5054237;28;20271;-82
2024/01/12 10:49:36;;;;;;;;;;;0.80;99.90;;;;;;5050482;28;19909;-82
2024/01/12 10:52:05;;;;;;;;;;;0.80;99.90;;;;;;5058978;28;20504;-82
2024/01/12 10:54:45;;;;;;;;;;;0.80;99.90;;;;;;5054786;28;19913;-82
2024/01/12 10:57:11;;;;;;;;;;;0.80;99.90;;;;;;5054154;28;19923;-83
2024/01/12 10:59:36;;;;;;;;;;;0.90;99.90;;;;;;5054278;28;20006;-82
2024/01/12 11:02:03;;;;;;;;;;;0.90;99.90;;;;;;5052859;28;19914;-82
2024/01/12 11:04:29;;;;;;;;;;;0.90;99.90;;;;;;5073917;28;19944;-82
2024/01/12 11:06:58;;;;;;;;;;;0.90;99.90;;;;;;5072514;28;19993;-82
2024/01/12 11:09:24;;;;;;;;;;;1.10;99.90;;;;;;5073069;28;19999;-82
2024/01/12 11:11:53;;;;;;;;;;;1.10;99.90;;;;;;5072543;28;20003;-82
2024/01/12 11:14:20;;;;;;;;;;;1.20;99.90;;;;;;5071805;28;19912;-82
2024/01/12 11:16:46;;;;;;;;;;;1.30;99.90;;;;;;5072425;28;19918;-82
2024/01/12 11:19:14;;;;;;;;;;;1.30;99.90;;;;;;5072544;28;19913;-81
2024/01/12 11:21:41;;;;;;;;;;;1.30;99.90;;;;;;5071588;28;19920;-82
2024/01/12 11:24:08;;;;;;;;;;;1.30;99.90;;;;;;5072858;28;19918;-82
2024/01/12 11:26:34;;;;;;;;;;;1.30;99.90;;;;;;5065861;28;19908;-82
2024/01/12 11:28:59;;;;;;;;;;;1.20;99.90;;;;;;5069980;28;19916;-82
2024/01/12 11:31:29;;;;;;;;;;;1.20;99.90;;;;;;5072123;28;20246;-82
2024/01/12 11:33:58;;;;;;;;;;;1.30;99.90;;;;;;5071152;28;19956;-82
2024/01/12 11:36:30;;;;;;;;;;;1.30;99.90;;;;;;5071918;28;19919;-82
2024/01/12 11:38:59;;;;;;;;;;;1.40;99.90;;;;;;5072243;28;20587;-82
2024/01/12 11:41:28;;;;;;;;;;;1.40;99.90;;;;;;5071744;28;19920;-82
2024/01/12 11:43:54;;;;;;;;;;;1.40;99.90;;;;;;5072414;28;19920;-81
2024/01/12 11:46:20;;;;;;;;;;;1.50;99.90;;;;;;5070763;28;20304;-82
2024/01/12 11:48:47;;;;;;;;;;;1.50;99.90;;;;;;5051831;28;20301;-83
2024/01/12 11:51:29;;;;;;;;;;;1.60;99.90;;;;;;5069148;28;19909;-84
2024/01/12 11:53:56;;;;;;;;;;;1.50;99.90;;;;;;5072069;28;20359;-84
2024/01/12 11:56:22;;;;;;;;;;;1.50;99.90;;;;;;5071854;28;19912;-84
2024/01/12 11:58:47;;;;;;;;;;;1.50;99.90;;;;;;5059800;28;20335;-83
2024/01/12 12:01:13;;;;;;;;;;;1.70;99.90;;;;;;5067295;28;19919;-83
2024/01/12 12:03:38;;;;;;;;;;;1.80;99.90;;;;;;5070312;28;19916;-84
2024/01/12 12:06:05;;;;;;;;;;;1.80;99.90;;;;;;5048223;28;19986;-84
2024/01/12 12:08:30;;;;;;;;;;;1.80;99.90;;;;;;5070827;28;19970;-83
2024/01/12 12:10:56;;;;;;;;;;;1.90;99.90;;;;;;5071295;28;19920;-84
2024/01/12 12:13:21;;;;;;;;;;;2.10;99.90;;;;;;5070062;28;20568;-82
2024/01/12 12:15:46;;;;;;;;;;;2.30;99.90;;;;;;5070127;28;20056;-82
2024/01/12 12:18:12;;;;;;;;;;;2.50;99.90;;;;;;5052908;28;19917;-82
2024/01/12 12:20:38;;;;;;;;;;;2.70;99.90;;;;;;5064142;28;19913;-83
2024/01/12 12:23:03;;;;;;;;;;;2.90;99.90;;;;;;5067287;28;19923;-83
2024/01/12 12:25:29;;;;;;;;;;;3.10;99.90;;;;;;5070072;28;19912;-82
2024/01/12 12:27:55;;;;;;;;;;;3.20;99.90;;;;;;5070688;28;19948;-82
2024/01/12 12:30:20;;;;;;;;;;;3.20;99.90;;;;;;5070107;28;19912;-84
2024/01/12 12:32:46;;;;;;;;;;;3.30;99.90;;;;;;5068307;28;20411;-82
2024/01/12 12:35:12;;;;;;;;;;;3.50;99.90;;;;;;5071052;28;20281;-83
2024/01/12 12:37:38;;;;;;;;;;;4.00;99.90;;;;;;5071137;28;19916;-82
2024/01/12 12:40:04;;;;;;;;;;;4.00;99.90;;;;;;5052945;28;20436;-83
2024/01/12 12:42:31;;;;;;;;;;;3.90;99.90;;;;;;5070943;28;19923;-84
2024/01/12 12:44:56;;;;;;;;;;;3.80;99.90;;;;;;5060043;28;19923;-83
2024/01/12 12:47:22;;;;;;;;;;;3.70;99.90;;;;;;5053211;28;19908;-84
2024/01/12 12:49:48;;;;;;;;;;;3.80;99.90;;;;;;5071480;28;19915;-82
2024/01/12 12:52:13;;;;;;;;;;;3.90;99.90;;;;;;5070395;28;19939;-85
2024/01/12 12:54:39;;;;;;;;;;;4.00;99.90;;;;;;5070397;28;20510;-83
2024/01/12 12:57:04;;;;;;;;;;;3.80;99.90;;;;;;5070184;28;19912;-84
2024/01/12 12:59:33;;;;;;;;;;;4.00;99.90;;;;;;5071373;28;19909;-84
2024/01/12 13:01:59;;;;;;;;;;;4.30;99.90;;;;;;5070372;28;19912;-82
2024/01/12 13:04:25;;;;;;;;;;;5.60;99.90;;;;;;5068792;28;19947;-84
2024/01/12 13:06:50;;;;;;;;;;;5.80;99.90;;;;;;5071305;28;19947;-80
2024/01/12 13:09:16;;;;;;;;;;;7.20;99.90;;;;;;5070077;28;20153;-81
2024/01/12 13:11:41;;;;;;;;;;;7.20;99.90;;;;;;5070237;28;20331;-81
2024/01/12 13:14:07;;;;;;;;;;;7.00;99.90;;;;;;5052614;28;20026;-83
2024/01/12 13:16:33;;;;;;;;;;;7.50;99.90;;;;;;5069159;28;19913;-85
2024/01/12 13:18:59;;;;;;;;;;;7.80;99.90;;;;;;5071598;28;19916;-84
2024/01/12 13:21:24;;;;;;;;;;;7.70;99.90;;;;;;5039989;28;19913;-84
2024/01/12 13:23:50;;;;;;;;;;;7.70;99.90;;;;;;5056027;28;19985;-83
2024/01/12 13:26:16;;;;;;;;;;;8.40;99.90;;;;;;5070300;28;20353;-83
2024/01/12 13:28:41;;;;;;;;;;;8.10;99.90;;;;;;5052308;28;19909;-82
2024/01/12 13:31:07;;;;;;;;;;;8.10;99.90;;;;;;5063426;28;19924;-85
2024/01/12 13:33:32;;;;;;;;;;;8.70;99.90;;;;;;5068630;28;19993;-85
2024/01/12 13:35:58;;;;;;;;;;;8.40;99.90;;;;;;5045562;28;19919;-83
2024/01/12 13:38:23;;;;;;;;;;;8.50;99.90;;;;;;5063451;28;19966;-85
2024/01/12 13:40:49;;;;;;;;;;;8.20;99.90;;;;;;5066715;28;19963;-82
2024/01/12 13:43:14;;;;;;;;;;;7.80;99.90;;;;;;5070209;28;19919;-83
2024/01/12 13:45:40;;;;;;;;;;;8.20;99.90;;;;;;5068828;28;19927;-83
2024/01/12 13:48:05;;;;;;;;;;;8.30;99.90;;;;;;5070441;28;19908;-85
2024/01/12 13:50:31;;;;;;;;;;;8.00;99.90;;;;;;5066013;28;19915;-80
2024/01/12 13:53:00;;;;;;;;;;;7.50;99.90;;;;;;5066787;28;20315;-81
2024/01/12 13:55:25;;;;;;;;;;;6.70;99.90;;;;;;5066242;28;19955;-81
2024/01/12 13:57:51;;;;;;;;;;;5.90;99.90;;;;;;5068348;28;19963;-82
2024/01/12 14:00:17;;;;;;;;;;;5.20;99.90;;;;;;5069161;28;20006;-83
2024/01/12 14:02:43;;;;;;;;;;;4.80;99.90;;;;;;5069733;28;20565;-83
2024/01/12 14:05:10;;;;;;;;;;;4.30;99.90;;;;;;5067988;28;19912;-82
2024/01/12 14:07:36;;;;;;;;;;;4.00;99.90;;;;;;5067892;28;19912;-83
2024/01/12 14:10:01;;;;;;;;;;;3.90;99.90;;;;;;5065314;28;19938;-82
2024/01/12 14:12:29;;;;;;;;;;;3.80;99.90;;;;;;5069328;28;19912;-83
2024/01/12 14:14:55;;;;;;;;;;;3.60;99.90;;;;;;5066457;28;19929;-84
2024/01/12 14:17:20;;;;;;;;;;;3.60;99.90;;;;;;5068381;28;20353;-84